< Typhoon 197409 1974 Season Typhoon 197411 >
Typhoon 197410 (IVY)
General InformationTrack Information on Google Maps || Disaster Info.ResourceGoogle EarthGE AnimationAtom FeedGeoJSON
Detalied Best Track (Time Zone = UTC)
Year Month Day Hour Lat. Long. Pressure (hPa) Wind (kt) Class Image Chart
1974 7 17 06 11.8 139.5 1002 0 2 -- Chart
1974 7 17 12 12.3 137.7 1002 0 2 -- Chart
1974 7 17 18 12.9 135.9 1000 0 2 -- Chart
1974 7 18 00 13.4 134.4 996 0 9 -- Chart
1974 7 18 06 13.8 132.7 990 0 9 -- Chart
1974 7 18 12 14.1 130.9 985 0 9 -- Chart
1974 7 18 18 14.4 129.5 975 0 9 -- Chart
1974 7 19 00 14.6 128.0 965 0 9 -- Chart
1974 7 19 06 14.7 126.5 950 0 9 -- Chart
1974 7 19 12 14.9 125.1 950 0 9 -- Chart
1974 7 19 18 15.2 123.6 950 0 9 -- Chart
1974 7 20 00 15.6 122.4 955 0 9 -- Chart
1974 7 20 06 16.2 121.1 960 0 9 -- Chart
1974 7 20 12 16.8 119.6 965 0 9 -- Chart
1974 7 20 18 17.4 118.2 970 0 9 -- Chart
1974 7 21 00 17.8 116.6 975 0 9 -- Chart
1974 7 21 06 18.5 115.4 970 0 9 -- Chart
1974 7 21 12 19.1 114.4 965 0 9 -- Chart
1974 7 21 18 19.6 113.4 965 0 9 -- Chart
1974 7 22 00 20.1 112.6 965 0 9 -- Chart
1974 7 22 06 20.5 111.9 970 0 9 -- Chart
1974 7 22 12 21.0 110.9 980 0 9 -- Chart
1974 7 22 18 21.9 110.2 985 0 9 -- Chart
1974 7 23 00 22.8 109.5 998 0 2 -- Chart
1974 7 23 06 23.4 108.0 1000 0 2 -- Chart
1974 7 23 12 24.0 107.0 1000 0 2 -- Chart
1974 7 23 18 24.5 107.0 1000 0 2 -- Chart
1974 7 24 00 25.0 106.0 1002 0 2 -- Chart
1974 7 24 06 25.1 105.0 1000 0 2 -- Chart
Japan Meteorological Agency Best Track Data | Correction Date : 1989-06-01
< Typhoon 197409 1974 Season Typhoon 197411 >

Help